sensor_id;sensor_type;location;lat;lon;timestamp;P1;durP1;ratioP1;P2;durP2;ratioP2
10442;SDS011;5269;51.146;16.986;2022-10-15T00:00:41;27.40;;;18.30;;
10442;SDS011;5269;51.146;16.986;2022-10-15T00:03:08;23.48;;;18.23;;
10442;SDS011;5269;51.146;16.986;2022-10-15T00:05:35;25.08;;;17.60;;
10442;SDS011;5269;51.146;16.986;2022-10-15T00:08:03;25.75;;;17.98;;
10442;SDS011;5269;51.146;16.986;2022-10-15T00:10:30;24.85;;;18.42;;
10442;SDS011;5269;51.146;16.986;2022-10-15T00:12:59;23.83;;;18.35;;
10442;SDS011;5269;51.146;16.986;2022-10-15T00:15:26;25.52;;;18.40;;
10442;SDS011;5269;51.146;16.986;2022-10-15T00:17:53;24.20;;;17.52;;
10442;SDS011;5269;51.146;16.986;2022-10-15T00:20:21;25.45;;;17.35;;
10442;SDS011;5269;51.146;16.986;2022-10-15T00:22:48;25.25;;;18.70;;
10442;SDS011;5269;51.146;16.986;2022-10-15T00:25:15;24.98;;;18.20;;
10442;SDS011;5269;51.146;16.986;2022-10-15T00:27:42;25.38;;;17.73;;
10442;SDS011;5269;51.146;16.986;2022-10-15T00:30:11;23.10;;;17.80;;
10442;SDS011;5269;51.146;16.986;2022-10-15T00:32:38;27.40;;;17.90;;
10442;SDS011;5269;51.146;16.986;2022-10-15T00:35:07;25.40;;;17.55;;
10442;SDS011;5269;51.146;16.986;2022-10-15T00:37:34;23.13;;;17.42;;
10442;SDS011;5269;51.146;16.986;2022-10-15T00:40:01;22.92;;;16.88;;
10442;SDS011;5269;51.146;16.986;2022-10-15T00:42:28;25.63;;;17.02;;
10442;SDS011;5269;51.146;16.986;2022-10-15T00:44:56;26.55;;;18.33;;
10442;SDS011;5269;51.146;16.986;2022-10-15T00:47:29;27.55;;;17.88;;
10442;SDS011;5269;51.146;16.986;2022-10-15T00:50:02;25.98;;;17.38;;
10442;SDS011;5269;51.146;16.986;2022-10-15T00:52:36;24.92;;;17.48;;
10442;SDS011;5269;51.146;16.986;2022-10-15T00:55:09;22.17;;;16.58;;
10442;SDS011;5269;51.146;16.986;2022-10-15T00:57:39;21.75;;;17.00;;
10442;SDS011;5269;51.146;16.986;2022-10-15T01:00:09;25.17;;;17.73;;
10442;SDS011;5269;51.146;16.986;2022-10-15T01:02:40;24.05;;;16.83;;
10442;SDS011;5269;51.146;16.986;2022-10-15T01:05:07;25.55;;;17.52;;
10442;SDS011;5269;51.146;16.986;2022-10-15T01:07:35;24.73;;;17.35;;
10442;SDS011;5269;51.146;16.986;2022-10-15T01:10:02;24.58;;;18.05;;
10442;SDS011;5269;51.146;16.986;2022-10-15T01:12:39;24.73;;;17.52;;
10442;SDS011;5269;51.146;16.986;2022-10-15T01:15:18;23.35;;;16.40;;
10442;SDS011;5269;51.146;16.986;2022-10-15T01:17:52;23.17;;;16.90;;
10442;SDS011;5269;51.146;16.986;2022-10-15T01:20:30;24.17;;;16.70;;
10442;SDS011;5269;51.146;16.986;2022-10-15T01:26:45;26.50;;;16.90;;
10442;SDS011;5269;51.146;16.986;2022-10-15T01:29:39;22.40;;;15.80;;
10442;SDS011;5269;51.146;16.986;2022-10-15T01:32:25;22.27;;;16.08;;
10442;SDS011;5269;51.146;16.986;2022-10-15T01:34:54;21.10;;;15.93;;
10442;SDS011;5269;51.146;16.986;2022-10-15T01:37:29;22.67;;;16.98;;
10442;SDS011;5269;51.146;16.986;2022-10-15T01:40:03;23.92;;;16.52;;
10442;SDS011;5269;51.146;16.986;2022-10-15T01:42:36;24.42;;;17.15;;
10442;SDS011;5269;51.146;16.986;2022-10-15T01:45:09;24.73;;;16.85;;
10442;SDS011;5269;51.146;16.986;2022-10-15T01:47:44;23.13;;;16.88;;
10442;SDS011;5269;51.146;16.986;2022-10-15T01:50:14;24.27;;;16.48;;
10442;SDS011;5269;51.146;16.986;2022-10-15T01:52:43;23.17;;;16.52;;
10442;SDS011;5269;51.146;16.986;2022-10-15T01:55:11;23.83;;;16.85;;
10442;SDS011;5269;51.146;16.986;2022-10-15T01:57:41;22.48;;;16.95;;
10442;SDS011;5269;51.146;16.986;2022-10-15T02:00:10;23.85;;;17.33;;
10442;SDS011;5269;51.146;16.986;2022-10-15T02:02:38;29.02;;;17.90;;
10442;SDS011;5269;51.146;16.986;2022-10-15T02:05:09;23.92;;;17.35;;
10442;SDS011;5269;51.146;16.986;2022-10-15T02:07:42;25.02;;;16.83;;
10442;SDS011;5269;51.146;16.986;2022-10-15T02:10:18;25.48;;;17.25;;
10442;SDS011;5269;51.146;16.986;2022-10-15T02:12:54;26.45;;;17.23;;
10442;SDS011;5269;51.146;16.986;2022-10-15T02:15:31;24.50;;;16.15;;
10442;SDS011;5269;51.146;16.986;2022-10-15T02:18:03;22.58;;;16.55;;
10442;SDS011;5269;51.146;16.986;2022-10-15T02:20:38;23.70;;;17.35;;
10442;SDS011;5269;51.146;16.986;2022-10-15T02:23:11;28.55;;;18.45;;
10442;SDS011;5269;51.146;16.986;2022-10-15T02:25:42;26.20;;;17.85;;
10442;SDS011;5269;51.146;16.986;2022-10-15T02:28:10;29.60;;;17.85;;
10442;SDS011;5269;51.146;16.986;2022-10-15T02:30:39;27.95;;;17.83;;
10442;SDS011;5269;51.146;16.986;2022-10-15T02:33:09;27.33;;;17.80;;
10442;SDS011;5269;51.146;16.986;2022-10-15T02:35:38;26.30;;;17.50;;
10442;SDS011;5269;51.146;16.986;2022-10-15T02:38:07;27.58;;;17.52;;
10442;SDS011;5269;51.146;16.986;2022-10-15T02:40:38;22.77;;;16.77;;
10442;SDS011;5269;51.146;16.986;2022-10-15T02:43:09;26.02;;;17.45;;
10442;SDS011;5269;51.146;16.986;2022-10-15T02:45:37;28.27;;;17.70;;
10442;SDS011;5269;51.146;16.986;2022-10-15T02:48:05;27.73;;;18.13;;
10442;SDS011;5269;51.146;16.986;2022-10-15T02:50:32;29.23;;;18.10;;
10442;SDS011;5269;51.146;16.986;2022-10-15T02:53:01;28.17;;;18.25;;
10442;SDS011;5269;51.146;16.986;2022-10-15T02:55:28;24.77;;;16.85;;
10442;SDS011;5269;51.146;16.986;2022-10-15T02:57:54;24.77;;;17.05;;
10442;SDS011;5269;51.146;16.986;2022-10-15T03:00:22;26.75;;;17.63;;
10442;SDS011;5269;51.146;16.986;2022-10-15T03:02:48;23.98;;;17.40;;
10442;SDS011;5269;51.146;16.986;2022-10-15T03:05:15;25.35;;;16.88;;
10442;SDS011;5269;51.146;16.986;2022-10-15T03:07:42;25.70;;;16.48;;
10442;SDS011;5269;51.146;16.986;2022-10-15T03:10:11;24.10;;;16.85;;
10442;SDS011;5269;51.146;16.986;2022-10-15T03:12:38;24.10;;;17.27;;
10442;SDS011;5269;51.146;16.986;2022-10-15T03:15:05;22.10;;;16.02;;
10442;SDS011;5269;51.146;16.986;2022-10-15T03:17:33;24.45;;;17.08;;
10442;SDS011;5269;51.146;16.986;2022-10-15T03:19:59;24.63;;;16.92;;
10442;SDS011;5269;51.146;16.986;2022-10-15T03:22:26;23.98;;;16.52;;
10442;SDS011;5269;51.146;16.986;2022-10-15T03:24:53;24.10;;;15.90;;
10442;SDS011;5269;51.146;16.986;2022-10-15T03:27:22;25.08;;;16.63;;
10442;SDS011;5269;51.146;16.986;2022-10-15T03:29:49;26.30;;;17.27;;
10442;SDS011;5269;51.146;16.986;2022-10-15T03:32:16;24.10;;;17.23;;
10442;SDS011;5269;51.146;16.986;2022-10-15T03:34:42;24.52;;;16.52;;
10442;SDS011;5269;51.146;16.986;2022-10-15T03:37:09;23.88;;;17.02;;
10442;SDS011;5269;51.146;16.986;2022-10-15T03:39:36;26.08;;;17.73;;
10442;SDS011;5269;51.146;16.986;2022-10-15T03:42:03;22.10;;;16.38;;
10442;SDS011;5269;51.146;16.986;2022-10-15T03:44:31;28.65;;;16.98;;
10442;SDS011;5269;51.146;16.986;2022-10-15T03:46:59;25.15;;;17.52;;
10442;SDS011;5269;51.146;16.986;2022-10-15T03:49:25;24.23;;;16.73;;
10442;SDS011;5269;51.146;16.986;2022-10-15T03:51:52;26.60;;;17.23;;
10442;SDS011;5269;51.146;16.986;2022-10-15T03:54:19;24.75;;;16.73;;
10442;SDS011;5269;51.146;16.986;2022-10-15T03:56:46;25.55;;;17.30;;
10442;SDS011;5269;51.146;16.986;2022-10-15T03:59:13;26.63;;;17.17;;
10442;SDS011;5269;51.146;16.986;2022-10-15T04:01:41;29.50;;;17.65;;
10442;SDS011;5269;51.146;16.986;2022-10-15T04:04:09;22.92;;;16.30;;
10442;SDS011;5269;51.146;16.986;2022-10-15T04:06:37;21.65;;;15.57;;
10442;SDS011;5269;51.146;16.986;2022-10-15T04:09:03;22.75;;;15.75;;
10442;SDS011;5269;51.146;16.986;2022-10-15T04:11:31;23.88;;;16.05;;
10442;SDS011;5269;51.146;16.986;2022-10-15T04:13:57;22.52;;;15.45;;
10442;SDS011;5269;51.146;16.986;2022-10-15T04:16:24;22.58;;;15.48;;
10442;SDS011;5269;51.146;16.986;2022-10-15T04:18:53;26.92;;;16.25;;
10442;SDS011;5269;51.146;16.986;2022-10-15T04:21:20;23.20;;;16.13;;
10442;SDS011;5269;51.146;16.986;2022-10-15T04:23:46;26.48;;;18.33;;
10442;SDS011;5269;51.146;16.986;2022-10-15T04:26:13;25.67;;;18.63;;
10442;SDS011;5269;51.146;16.986;2022-10-15T04:28:40;29.48;;;19.60;;
10442;SDS011;5269;51.146;16.986;2022-10-15T04:31:07;29.27;;;19.30;;
10442;SDS011;5269;51.146;16.986;2022-10-15T04:33:34;25.38;;;18.02;;
10442;SDS011;5269;51.146;16.986;2022-10-15T04:36:03;29.77;;;17.85;;
10442;SDS011;5269;51.146;16.986;2022-10-15T04:38:31;24.05;;;16.83;;
10442;SDS011;5269;51.146;16.986;2022-10-15T04:40:59;24.17;;;16.30;;
10442;SDS011;5269;51.146;16.986;2022-10-15T04:43:30;24.10;;;16.27;;
10442;SDS011;5269;51.146;16.986;2022-10-15T04:45:57;24.60;;;15.82;;
10442;SDS011;5269;51.146;16.986;2022-10-15T04:48:26;23.83;;;16.35;;
10442;SDS011;5269;51.146;16.986;2022-10-15T04:50:54;24.27;;;16.38;;
10442;SDS011;5269;51.146;16.986;2022-10-15T04:53:28;25.35;;;16.77;;
10442;SDS011;5269;51.146;16.986;2022-10-15T04:55:58;26.42;;;17.83;;
10442;SDS011;5269;51.146;16.986;2022-10-15T04:58:27;25.33;;;16.73;;
10442;SDS011;5269;51.146;16.986;2022-10-15T05:00:57;27.08;;;17.13;;
10442;SDS011;5269;51.146;16.986;2022-10-15T05:03:28;23.75;;;17.65;;
10442;SDS011;5269;51.146;16.986;2022-10-15T05:05:58;24.02;;;17.65;;
10442;SDS011;5269;51.146;16.986;2022-10-15T05:08:26;25.70;;;17.35;;
10442;SDS011;5269;51.146;16.986;2022-10-15T05:10:58;24.38;;;17.52;;
10442;SDS011;5269;51.146;16.986;2022-10-15T05:13:27;28.73;;;18.55;;
10442;SDS011;5269;51.146;16.986;2022-10-15T05:15:54;25.65;;;17.35;;
10442;SDS011;5269;51.146;16.986;2022-10-15T05:18:21;26.92;;;17.42;;
10442;SDS011;5269;51.146;16.986;2022-10-15T05:20:48;26.33;;;18.13;;
10442;SDS011;5269;51.146;16.986;2022-10-15T05:23:15;25.55;;;18.00;;
10442;SDS011;5269;51.146;16.986;2022-10-15T05:25:43;27.80;;;17.02;;
10442;SDS011;5269;51.146;16.986;2022-10-15T05:28:10;24.63;;;17.45;;
10442;SDS011;5269;51.146;16.986;2022-10-15T05:30:37;29.23;;;19.30;;
10442;SDS011;5269;51.146;16.986;2022-10-15T05:33:03;29.83;;;18.30;;
10442;SDS011;5269;51.146;16.986;2022-10-15T05:35:30;27.42;;;18.48;;
10442;SDS011;5269;51.146;16.986;2022-10-15T05:37:57;28.23;;;18.08;;
10442;SDS011;5269;51.146;16.986;2022-10-15T05:40:24;31.65;;;18.70;;
10442;SDS011;5269;51.146;16.986;2022-10-15T05:42:52;28.55;;;19.48;;
10442;SDS011;5269;51.146;16.986;2022-10-15T05:45:19;29.80;;;18.65;;
10442;SDS011;5269;51.146;16.986;2022-10-15T05:47:46;28.70;;;18.70;;
10442;SDS011;5269;51.146;16.986;2022-10-15T05:50:13;28.98;;;18.00;;
10442;SDS011;5269;51.146;16.986;2022-10-15T05:52:40;29.95;;;19.42;;
10442;SDS011;5269;51.146;16.986;2022-10-15T05:55:07;27.08;;;18.70;;
10442;SDS011;5269;51.146;16.986;2022-10-15T05:57:34;27.25;;;18.00;;
10442;SDS011;5269;51.146;16.986;2022-10-15T06:00:03;24.80;;;17.52;;
10442;SDS011;5269;51.146;16.986;2022-10-15T06:02:31;29.23;;;18.77;;
10442;SDS011;5269;51.146;16.986;2022-10-15T06:05:01;26.80;;;17.42;;
10442;SDS011;5269;51.146;16.986;2022-10-15T06:07:28;26.30;;;18.38;;
10442;SDS011;5269;51.146;16.986;2022-10-15T06:09:56;25.95;;;17.38;;
10442;SDS011;5269;51.146;16.986;2022-10-15T06:12:23;28.17;;;18.58;;
10442;SDS011;5269;51.146;16.986;2022-10-15T06:14:50;26.17;;;17.88;;
10442;SDS011;5269;51.146;16.986;2022-10-15T06:17:18;29.52;;;18.80;;
10442;SDS011;5269;51.146;16.986;2022-10-15T06:19:45;29.42;;;18.95;;
10442;SDS011;5269;51.146;16.986;2022-10-15T06:22:54;26.35;;;18.27;;
10442;SDS011;5269;51.146;16.986;2022-10-15T06:25:29;27.42;;;19.20;;
10442;SDS011;5269;51.146;16.986;2022-10-15T06:28:02;26.85;;;18.30;;
10442;SDS011;5269;51.146;16.986;2022-10-15T06:30:35;28.75;;;18.30;;
10442;SDS011;5269;51.146;16.986;2022-10-15T06:33:03;25.23;;;19.00;;
10442;SDS011;5269;51.146;16.986;2022-10-15T06:35:33;29.75;;;18.92;;
10442;SDS011;5269;51.146;16.986;2022-10-15T06:38:03;27.42;;;18.85;;
10442;SDS011;5269;51.146;16.986;2022-10-15T06:40:37;29.48;;;19.52;;
10442;SDS011;5269;51.146;16.986;2022-10-15T06:43:09;27.13;;;18.23;;
10442;SDS011;5269;51.146;16.986;2022-10-15T06:45:37;32.53;;;18.90;;
10442;SDS011;5269;51.146;16.986;2022-10-15T06:48:16;27.70;;;18.73;;
10442;SDS011;5269;51.146;16.986;2022-10-15T06:50:43;25.75;;;18.42;;
10442;SDS011;5269;51.146;16.986;2022-10-15T06:53:10;27.63;;;18.52;;
10442;SDS011;5269;51.146;16.986;2022-10-15T06:55:37;30.45;;;21.05;;
10442;SDS011;5269;51.146;16.986;2022-10-15T06:58:04;28.80;;;20.05;;
10442;SDS011;5269;51.146;16.986;2022-10-15T07:00:31;27.45;;;19.50;;
10442;SDS011;5269;51.146;16.986;2022-10-15T07:03:01;29.17;;;19.88;;
10442;SDS011;5269;51.146;16.986;2022-10-15T07:05:31;27.90;;;19.75;;
10442;SDS011;5269;51.146;16.986;2022-10-15T07:07:58;28.00;;;18.73;;
10442;SDS011;5269;51.146;16.986;2022-10-15T07:10:26;28.10;;;18.27;;
10442;SDS011;5269;51.146;16.986;2022-10-15T07:12:53;32.05;;;20.20;;
10442;SDS011;5269;51.146;16.986;2022-10-15T07:15:20;25.35;;;19.02;;
10442;SDS011;5269;51.146;16.986;2022-10-15T07:17:47;31.55;;;19.02;;
10442;SDS011;5269;51.146;16.986;2022-10-15T07:20:15;27.95;;;19.08;;
10442;SDS011;5269;51.146;16.986;2022-10-15T07:22:44;26.60;;;19.48;;
10442;SDS011;5269;51.146;16.986;2022-10-15T07:25:11;28.73;;;19.45;;
10442;SDS011;5269;51.146;16.986;2022-10-15T07:30:12;32.13;;;19.40;;
10442;SDS011;5269;51.146;16.986;2022-10-15T07:32:39;30.20;;;19.80;;
10442;SDS011;5269;51.146;16.986;2022-10-15T07:35:07;28.15;;;20.25;;
10442;SDS011;5269;51.146;16.986;2022-10-15T07:37:34;32.80;;;19.55;;
10442;SDS011;5269;51.146;16.986;2022-10-15T07:40:03;26.88;;;19.77;;
10442;SDS011;5269;51.146;16.986;2022-10-15T07:42:32;29.63;;;20.67;;
10442;SDS011;5269;51.146;16.986;2022-10-15T07:44:59;29.35;;;20.15;;
10442;SDS011;5269;51.146;16.986;2022-10-15T07:47:26;31.60;;;21.48;;
10442;SDS011;5269;51.146;16.986;2022-10-15T07:49:53;31.23;;;21.35;;
10442;SDS011;5269;51.146;16.986;2022-10-15T07:52:23;29.52;;;21.08;;
10442;SDS011;5269;51.146;16.986;2022-10-15T07:54:50;33.60;;;20.92;;
10442;SDS011;5269;51.146;16.986;2022-10-15T07:57:19;29.58;;;21.33;;
10442;SDS011;5269;51.146;16.986;2022-10-15T07:59:46;28.85;;;21.05;;
10442;SDS011;5269;51.146;16.986;2022-10-15T08:02:13;30.60;;;20.52;;
10442;SDS011;5269;51.146;16.986;2022-10-15T08:04:41;31.58;;;21.33;;
10442;SDS011;5269;51.146;16.986;2022-10-15T08:07:08;28.25;;;20.73;;
10442;SDS011;5269;51.146;16.986;2022-10-15T08:09:35;32.75;;;21.50;;
10442;SDS011;5269;51.146;16.986;2022-10-15T08:12:02;29.38;;;20.83;;
10442;SDS011;5269;51.146;16.986;2022-10-15T08:14:32;30.52;;;21.27;;
10442;SDS011;5269;51.146;16.986;2022-10-15T08:17:00;25.73;;;19.77;;
10442;SDS011;5269;51.146;16.986;2022-10-15T08:19:27;28.95;;;21.30;;
10442;SDS011;5269;51.146;16.986;2022-10-15T08:21:54;29.63;;;20.13;;
10442;SDS011;5269;51.146;16.986;2022-10-15T08:24:20;29.23;;;20.50;;
10442;SDS011;5269;51.146;16.986;2022-10-15T08:26:47;28.65;;;20.17;;
10442;SDS011;5269;51.146;16.986;2022-10-15T08:29:14;31.15;;;20.70;;
10442;SDS011;5269;51.146;16.986;2022-10-15T08:31:42;29.65;;;21.80;;
10442;SDS011;5269;51.146;16.986;2022-10-15T08:34:09;29.58;;;20.33;;
10442;SDS011;5269;51.146;16.986;2022-10-15T08:36:36;33.00;;;21.40;;
10442;SDS011;5269;51.146;16.986;2022-10-15T08:39:03;31.45;;;22.08;;
10442;SDS011;5269;51.146;16.986;2022-10-15T08:41:34;31.48;;;22.58;;
10442;SDS011;5269;51.146;16.986;2022-10-15T08:44:03;30.58;;;21.85;;
10442;SDS011;5269;51.146;16.986;2022-10-15T08:46:33;31.75;;;22.05;;
10442;SDS011;5269;51.146;16.986;2022-10-15T08:49:08;34.38;;;22.98;;
10442;SDS011;5269;51.146;16.986;2022-10-15T08:51:50;34.17;;;23.60;;
10442;SDS011;5269;51.146;16.986;2022-10-15T08:54:21;35.17;;;24.52;;
10442;SDS011;5269;51.146;16.986;2022-10-15T08:56:49;38.08;;;24.40;;
10442;SDS011;5269;51.146;16.986;2022-10-15T08:59:23;40.58;;;26.02;;
10442;SDS011;5269;51.146;16.986;2022-10-15T09:02:01;42.45;;;27.08;;
10442;SDS011;5269;51.146;16.986;2022-10-15T09:04:35;35.92;;;25.25;;
10442;SDS011;5269;51.146;16.986;2022-10-15T09:07:08;38.63;;;25.58;;
10442;SDS011;5269;51.146;16.986;2022-10-15T09:09:43;37.83;;;26.52;;
10442;SDS011;5269;51.146;16.986;2022-10-15T09:12:17;35.65;;;24.50;;
10442;SDS011;5269;51.146;16.986;2022-10-15T09:14:56;36.15;;;23.77;;
10442;SDS011;5269;51.146;16.986;2022-10-15T09:17:25;32.78;;;23.75;;
10442;SDS011;5269;51.146;16.986;2022-10-15T09:19:58;33.88;;;22.38;;
10442;SDS011;5269;51.146;16.986;2022-10-15T09:22:30;33.28;;;23.02;;
10442;SDS011;5269;51.146;16.986;2022-10-15T09:25:06;30.77;;;22.13;;
10442;SDS011;5269;51.146;16.986;2022-10-15T09:27:44;31.90;;;23.60;;
10442;SDS011;5269;51.146;16.986;2022-10-15T09:30:26;34.47;;;22.48;;
10442;SDS011;5269;51.146;16.986;2022-10-15T09:33:00;28.70;;;21.58;;
10442;SDS011;5269;51.146;16.986;2022-10-15T09:35:35;32.28;;;22.48;;
10442;SDS011;5269;51.146;16.986;2022-10-15T09:38:08;31.42;;;21.90;;
10442;SDS011;5269;51.146;16.986;2022-10-15T09:40:51;29.58;;;21.33;;
10442;SDS011;5269;51.146;16.986;2022-10-15T09:43:29;28.95;;;21.98;;
10442;SDS011;5269;51.146;16.986;2022-10-15T09:45:59;30.90;;;22.50;;
10442;SDS011;5269;51.146;16.986;2022-10-15T09:48:27;28.35;;;20.55;;
10442;SDS011;5269;51.146;16.986;2022-10-15T09:51:03;30.67;;;20.75;;
10442;SDS011;5269;51.146;16.986;2022-10-15T09:53:39;29.90;;;21.38;;
10442;SDS011;5269;51.146;16.986;2022-10-15T09:56:14;30.80;;;21.63;;
10442;SDS011;5269;51.146;16.986;2022-10-15T09:58:47;27.83;;;19.92;;
10442;SDS011;5269;51.146;16.986;2022-10-15T10:01:17;25.45;;;19.67;;
10442;SDS011;5269;51.146;16.986;2022-10-15T10:03:45;25.38;;;18.00;;
10442;SDS011;5269;51.146;16.986;2022-10-15T10:06:20;20.73;;;16.55;;
10442;SDS011;5269;51.146;16.986;2022-10-15T10:08:49;20.63;;;16.23;;
10442;SDS011;5269;51.146;16.986;2022-10-15T10:11:18;21.52;;;16.30;;
10442;SDS011;5269;51.146;16.986;2022-10-15T10:13:48;19.50;;;15.90;;
10442;SDS011;5269;51.146;16.986;2022-10-15T10:16:19;18.50;;;15.00;;
10442;SDS011;5269;51.146;16.986;2022-10-15T10:19:00;22.05;;;15.30;;
10442;SDS011;5269;51.146;16.986;2022-10-15T10:21:31;17.85;;;14.60;;
10442;SDS011;5269;51.146;16.986;2022-10-15T10:26:45;20.08;;;15.55;;
10442;SDS011;5269;51.146;16.986;2022-10-15T10:29:15;18.77;;;16.08;;
10442;SDS011;5269;51.146;16.986;2022-10-15T10:31:44;17.05;;;13.57;;
10442;SDS011;5269;51.146;16.986;2022-10-15T10:34:14;17.25;;;14.70;;
10442;SDS011;5269;51.146;16.986;2022-10-15T10:36:48;19.17;;;13.73;;
10442;SDS011;5269;51.146;16.986;2022-10-15T10:39:20;16.33;;;13.70;;
10442;SDS011;5269;51.146;16.986;2022-10-15T10:41:52;16.13;;;13.90;;
10442;SDS011;5269;51.146;16.986;2022-10-15T10:44:22;18.38;;;13.68;;
10442;SDS011;5269;51.146;16.986;2022-10-15T10:47:03;15.48;;;13.43;;
10442;SDS011;5269;51.146;16.986;2022-10-15T10:49:37;19.08;;;13.65;;
10442;SDS011;5269;51.146;16.986;2022-10-15T10:52:10;15.60;;;13.00;;
10442;SDS011;5269;51.146;16.986;2022-10-15T10:54:44;16.58;;;13.77;;
10442;SDS011;5269;51.146;16.986;2022-10-15T10:57:13;15.77;;;13.52;;
10442;SDS011;5269;51.146;16.986;2022-10-15T10:59:47;16.00;;;14.05;;
10442;SDS011;5269;51.146;16.986;2022-10-15T11:02:17;19.40;;;13.90;;
10442;SDS011;5269;51.146;16.986;2022-10-15T11:04:44;16.05;;;13.27;;
10442;SDS011;5269;51.146;16.986;2022-10-15T11:07:15;17.35;;;14.27;;
10442;SDS011;5269;51.146;16.986;2022-10-15T11:09:51;17.80;;;13.85;;
10442;SDS011;5269;51.146;16.986;2022-10-15T11:12:28;15.60;;;13.90;;
10442;SDS011;5269;51.146;16.986;2022-10-15T11:15:11;16.42;;;14.43;;
10442;SDS011;5269;51.146;16.986;2022-10-15T11:17:47;16.80;;;13.75;;
10442;SDS011;5269;51.146;16.986;2022-10-15T11:20:22;19.27;;;15.23;;
10442;SDS011;5269;51.146;16.986;2022-10-15T11:22:59;17.63;;;15.40;;
10442;SDS011;5269;51.146;16.986;2022-10-15T11:25:37;18.50;;;14.85;;
10442;SDS011;5269;51.146;16.986;2022-10-15T11:28:16;17.83;;;15.18;;
10442;SDS011;5269;51.146;16.986;2022-10-15T11:30:53;17.75;;;15.75;;
10442;SDS011;5269;51.146;16.986;2022-10-15T11:33:32;18.83;;;15.80;;
10442;SDS011;5269;51.146;16.986;2022-10-15T11:36:14;21.15;;;17.13;;
10442;SDS011;5269;51.146;16.986;2022-10-15T11:38:55;21.38;;;16.50;;
10442;SDS011;5269;51.146;16.986;2022-10-15T11:41:35;21.50;;;17.65;;
10442;SDS011;5269;51.146;16.986;2022-10-15T11:44:27;21.27;;;17.88;;
10442;SDS011;5269;51.146;16.986;2022-10-15T11:47:07;19.67;;;17.58;;
10442;SDS011;5269;51.146;16.986;2022-10-15T12:00:31;22.85;;;18.33;;
10442;SDS011;5269;51.146;16.986;2022-10-15T12:03:04;19.40;;;16.85;;
10442;SDS011;5269;51.146;16.986;2022-10-15T12:05:42;24.55;;;18.23;;
10442;SDS011;5269;51.146;16.986;2022-10-15T12:08:12;19.73;;;17.10;;
10442;SDS011;5269;51.146;16.986;2022-10-15T12:10:49;20.85;;;18.00;;
10442;SDS011;5269;51.146;16.986;2022-10-15T12:13:26;22.23;;;17.05;;
10442;SDS011;5269;51.146;16.986;2022-10-15T12:16:03;22.60;;;18.00;;
10442;SDS011;5269;51.146;16.986;2022-10-15T12:18:37;20.45;;;18.25;;
10442;SDS011;5269;51.146;16.986;2022-10-15T12:21:30;22.55;;;18.95;;
10442;SDS011;5269;51.146;16.986;2022-10-15T12:24:01;22.80;;;18.00;;
10442;SDS011;5269;51.146;16.986;2022-10-15T12:26:29;22.02;;;18.48;;
10442;SDS011;5269;51.146;16.986;2022-10-15T12:28:58;21.25;;;17.55;;
10442;SDS011;5269;51.146;16.986;2022-10-15T12:34:28;23.75;;;19.90;;
10442;SDS011;5269;51.146;16.986;2022-10-15T12:37:05;23.67;;;18.58;;
10442;SDS011;5269;51.146;16.986;2022-10-15T12:39:43;21.73;;;17.23;;
10442;SDS011;5269;51.146;16.986;2022-10-15T12:42:17;20.00;;;17.00;;
10442;SDS011;5269;51.146;16.986;2022-10-15T12:44:48;21.90;;;16.65;;
10442;SDS011;5269;51.146;16.986;2022-10-15T12:47:16;22.20;;;17.10;;
10442;SDS011;5269;51.146;16.986;2022-10-15T12:50:17;22.08;;;17.70;;
10442;SDS011;5269;51.146;16.986;2022-10-15T12:52:50;22.60;;;17.73;;
10442;SDS011;5269;51.146;16.986;2022-10-15T12:58:15;19.48;;;16.50;;
10442;SDS011;5269;51.146;16.986;2022-10-15T13:01:02;21.52;;;17.88;;
10442;SDS011;5269;51.146;16.986;2022-10-15T13:03:36;20.45;;;17.55;;
10442;SDS011;5269;51.146;16.986;2022-10-15T13:06:14;20.55;;;18.30;;
10442;SDS011;5269;51.146;16.986;2022-10-15T13:08:53;21.08;;;18.60;;
10442;SDS011;5269;51.146;16.986;2022-10-15T13:11:23;20.40;;;17.42;;
10442;SDS011;5269;51.146;16.986;2022-10-15T13:13:55;23.15;;;18.08;;
10442;SDS011;5269;51.146;16.986;2022-10-15T13:16:25;20.17;;;17.98;;
10442;SDS011;5269;51.146;16.986;2022-10-15T13:18:52;23.50;;;19.27;;
10442;SDS011;5269;51.146;16.986;2022-10-15T13:21:22;24.65;;;19.65;;
10442;SDS011;5269;51.146;16.986;2022-10-15T13:24:13;21.60;;;17.73;;
10442;SDS011;5269;51.146;16.986;2022-10-15T13:26:44;20.60;;;17.83;;
10442;SDS011;5269;51.146;16.986;2022-10-15T13:29:13;22.42;;;18.15;;
10442;SDS011;5269;51.146;16.986;2022-10-15T13:31:41;22.77;;;18.95;;
10442;SDS011;5269;51.146;16.986;2022-10-15T13:34:10;22.40;;;18.40;;
10442;SDS011;5269;51.146;16.986;2022-10-15T13:36:45;21.48;;;17.92;;
10442;SDS011;5269;51.146;16.986;2022-10-15T13:39:19;21.42;;;18.20;;
10442;SDS011;5269;51.146;16.986;2022-10-15T13:41:52;21.33;;;18.10;;
10442;SDS011;5269;51.146;16.986;2022-10-15T13:44:32;21.42;;;18.88;;
10442;SDS011;5269;51.146;16.986;2022-10-15T13:46:59;21.48;;;18.63;;
10442;SDS011;5269;51.146;16.986;2022-10-15T13:49:26;22.15;;;19.02;;
10442;SDS011;5269;51.146;16.986;2022-10-15T13:51:54;22.83;;;18.52;;
10442;SDS011;5269;51.146;16.986;2022-10-15T13:54:22;22.40;;;18.52;;
10442;SDS011;5269;51.146;16.986;2022-10-15T13:56:51;20.77;;;18.52;;
10442;SDS011;5269;51.146;16.986;2022-10-15T13:59:19;21.52;;;18.38;;
10442;SDS011;5269;51.146;16.986;2022-10-15T14:01:47;22.52;;;20.05;;
10442;SDS011;5269;51.146;16.986;2022-10-15T14:04:18;21.42;;;18.05;;
10442;SDS011;5269;51.146;16.986;2022-10-15T14:06:55;22.48;;;19.30;;
10442;SDS011;5269;51.146;16.986;2022-10-15T14:09:26;20.58;;;18.27;;
10442;SDS011;5269;51.146;16.986;2022-10-15T14:11:56;22.45;;;18.80;;
10442;SDS011;5269;51.146;16.986;2022-10-15T14:14:28;22.33;;;19.92;;
10442;SDS011;5269;51.146;16.986;2022-10-15T14:16:57;23.65;;;19.30;;
10442;SDS011;5269;51.146;16.986;2022-10-15T14:19:25;23.40;;;19.85;;
10442;SDS011;5269;51.146;16.986;2022-10-15T14:21:56;24.30;;;21.00;;
10442;SDS011;5269;51.146;16.986;2022-10-15T14:24:27;27.88;;;21.05;;
10442;SDS011;5269;51.146;16.986;2022-10-15T14:26:59;24.40;;;20.80;;
10442;SDS011;5269;51.146;16.986;2022-10-15T14:29:36;25.02;;;20.35;;
10442;SDS011;5269;51.146;16.986;2022-10-15T14:32:20;25.20;;;20.90;;
10442;SDS011;5269;51.146;16.986;2022-10-15T14:34:50;23.73;;;21.00;;
10442;SDS011;5269;51.146;16.986;2022-10-15T14:37:36;25.73;;;21.17;;
10442;SDS011;5269;51.146;16.986;2022-10-15T14:40:13;24.70;;;20.60;;
10442;SDS011;5269;51.146;16.986;2022-10-15T14:42:43;24.63;;;21.85;;
10442;SDS011;5269;51.146;16.986;2022-10-15T14:45:11;26.85;;;21.60;;
10442;SDS011;5269;51.146;16.986;2022-10-15T14:47:43;24.48;;;20.45;;
10442;SDS011;5269;51.146;16.986;2022-10-15T14:50:11;26.15;;;22.08;;
10442;SDS011;5269;51.146;16.986;2022-10-15T14:52:43;29.42;;;21.83;;
10442;SDS011;5269;51.146;16.986;2022-10-15T14:55:13;29.73;;;22.45;;
10442;SDS011;5269;51.146;16.986;2022-10-15T14:57:50;25.45;;;21.83;;
10442;SDS011;5269;51.146;16.986;2022-10-15T15:00:20;25.42;;;22.00;;
10442;SDS011;5269;51.146;16.986;2022-10-15T15:02:50;24.98;;;21.20;;
10442;SDS011;5269;51.146;16.986;2022-10-15T15:05:19;26.80;;;22.63;;
10442;SDS011;5269;51.146;16.986;2022-10-15T15:07:49;29.25;;;22.40;;